Time;durP1;ratioP1;P1;durP2;ratioP2;P2;SDS_P1;SDS_P2;PMS_P1;PMS_P2;Temp;Humidity;BMP_temperature;BMP_pressure;BME280_temperature;BME280_humidity;BME280_pressure;Samples;Min_cycle;Max_cycle;Signal;HPM_P1;HPM_P2
2022/12/19 00:01:16;;;;;;;37.70;23.83;;;0.70;99.90;;;;;;5001637;28;20029;-65
2022/12/19 00:03:47;;;;;;;38.70;24.52;;;0.80;99.90;;;;;;5018342;28;20104;-64
2022/12/19 00:06:13;;;;;;;36.85;22.95;;;0.80;99.90;;;;;;5016912;28;20085;-65
2022/12/19 00:08:44;;;;;;;35.15;24.42;;;0.80;99.90;;;;;;5034939;28;20045;-64
2022/12/19 00:11:11;;;;;;;36.08;24.15;;;0.80;99.90;;;;;;5019358;28;20080;-64
2022/12/19 00:13:39;;;;;;;36.15;24.13;;;0.80;99.90;;;;;;5009171;28;20046;-65
2022/12/19 00:16:07;;;;;;;35.40;23.30;;;0.80;99.90;;;;;;5017780;28;20398;-64
2022/12/19 00:18:33;;;;;;;38.78;24.70;;;0.80;99.90;;;;;;5017879;28;20045;-64
2022/12/19 00:21:02;;;;;;;37.67;24.45;;;0.90;99.90;;;;;;5018219;28;20385;-64
2022/12/19 00:23:30;;;;;;;38.90;25.40;;;0.90;99.90;;;;;;5020799;28;20124;-65
2022/12/19 00:26:09;;;;;;;35.75;24.75;;;0.90;99.90;;;;;;5017728;28;20049;-64
2022/12/19 00:28:35;;;;;;;36.53;23.42;;;0.90;99.90;;;;;;5019246;28;20069;-64
2022/12/19 00:31:01;;;;;;;36.10;23.80;;;1.00;99.90;;;;;;5021723;28;20044;-64
2022/12/19 00:33:27;;;;;;;40.95;25.10;;;1.00;99.90;;;;;;5021529;28;20073;-64
2022/12/19 00:36:00;;;;;;;37.10;24.42;;;1.00;99.90;;;;;;5020764;28;20525;-64
2022/12/19 00:38:27;;;;;;;35.08;23.85;;;1.00;99.90;;;;;;5019760;28;20466;-65
2022/12/19 00:40:52;;;;;;;36.20;22.55;;;1.00;99.90;;;;;;5015110;28;20054;-65
2022/12/19 00:43:18;;;;;;;38.15;25.35;;;1.00;99.90;;;;;;5015186;28;20115;-65
2022/12/19 00:45:44;;;;;;;37.28;23.85;;;1.10;99.90;;;;;;5020471;28;20045;-65
2022/12/19 00:48:09;;;;;;;36.80;23.38;;;1.10;99.90;;;;;;5019055;28;20059;-65
2022/12/19 00:50:35;;;;;;;35.95;24.27;;;1.10;99.90;;;;;;5018760;28;20605;-64
2022/12/19 00:53:01;;;;;;;35.83;24.10;;;1.10;99.90;;;;;;5022493;28;20180;-65
2022/12/19 00:55:26;;;;;;;36.92;24.08;;;1.20;99.90;;;;;;5013216;28;20034;-64
2022/12/19 00:57:52;;;;;;;34.65;23.60;;;1.20;99.90;;;;;;5025454;28;20030;-64
2022/12/19 01:00:18;;;;;;;34.50;23.98;;;1.30;99.90;;;;;;5020507;28;20037;-65
2022/12/19 01:02:44;;;;;;;36.40;24.40;;;1.30;99.90;;;;;;5020407;28;20165;-65
2022/12/19 01:05:09;;;;;;;33.97;22.40;;;1.30;99.90;;;;;;5018131;28;20073;-64
2022/12/19 01:07:35;;;;;;;36.72;23.85;;;1.30;99.90;;;;;;5022090;28;20042;-65
2022/12/19 01:10:01;;;;;;;36.72;23.70;;;1.30;99.90;;;;;;5016423;28;20069;-65
2022/12/19 01:12:45;;;;;;;32.97;22.50;;;1.30;99.90;;;;;;5018423;28;20128;-64
2022/12/19 01:15:12;;;;;;;36.13;23.13;;;1.30;99.90;;;;;;5015297;28;20423;-65
2022/12/19 01:17:38;;;;;;;33.78;23.17;;;1.40;99.90;;;;;;5016976;28;20489;-64
2022/12/19 01:20:04;;;;;;;32.72;23.05;;;1.40;99.90;;;;;;5017670;28;20038;-64
2022/12/19 01:22:30;;;;;;;35.30;22.60;;;1.40;99.90;;;;;;5022244;28;20132;-64
2022/12/19 01:24:55;;;;;;;32.20;22.10;;;1.40;99.90;;;;;;5016608;28;20041;-65
2022/12/19 01:27:21;;;;;;;34.90;23.67;;;1.50;99.90;;;;;;5015319;28;20557;-65
2022/12/19 01:29:47;;;;;;;34.15;22.00;;;1.40;99.90;;;;;;5017675;28;20050;-64
2022/12/19 01:32:12;;;;;;;38.08;23.65;;;1.50;99.90;;;;;;5017033;28;20362;-64
2022/12/19 01:34:38;;;;;;;35.80;22.33;;;1.50;99.90;;;;;;5022106;28;20042;-65
2022/12/19 01:37:04;;;;;;;36.47;22.00;;;1.50;99.90;;;;;;5019965;28;20390;-64
2022/12/19 01:39:29;;;;;;;35.53;23.60;;;1.50;99.90;;;;;;5020991;28;20060;-64
2022/12/19 01:41:56;;;;;;;38.70;23.35;;;1.50;99.90;;;;;;5017621;28;20029;-64
2022/12/19 01:44:24;;;;;;;37.03;22.33;;;1.50;99.90;;;;;;5020675;28;20327;-64
2022/12/19 01:46:56;;;;;;;35.22;23.15;;;1.50;99.90;;;;;;5016571;28;20425;-64
2022/12/19 01:49:33;;;;;;;37.60;23.33;;;1.50;99.90;;;;;;5017508;28;20588;-64
2022/12/19 01:52:03;;;;;;;34.55;22.38;;;1.60;99.90;;;;;;5016479;28;20049;-65
2022/12/19 01:54:33;;;;;;;35.15;23.70;;;1.60;99.90;;;;;;5016765;28;20037;-65
2022/12/19 01:57:01;;;;;;;35.65;22.63;;;1.60;99.90;;;;;;5017584;28;20128;-64
2022/12/19 01:59:37;;;;;;;33.53;22.70;;;1.60;99.90;;;;;;5023408;28;20047;-64
2022/12/19 02:02:13;;;;;;;35.80;22.88;;;1.60;99.90;;;;;;5022208;28;20072;-65
2022/12/19 02:04:40;;;;;;;36.60;23.52;;;1.60;99.90;;;;;;5021971;28;20049;-64
2022/12/19 02:07:07;;;;;;;36.88;22.75;;;1.70;99.90;;;;;;5025329;28;20097;-64
2022/12/19 02:09:35;;;;;;;39.58;24.50;;;1.70;99.90;;;;;;5026679;28;20040;-64
2022/12/19 02:12:00;;;;;;;37.33;23.80;;;1.70;99.90;;;;;;5023170;28;20403;-64
2022/12/19 02:14:27;;;;;;;40.33;24.60;;;1.70;99.90;;;;;;5024652;28;20132;-63
2022/12/19 02:17:06;;;;;;;38.67;24.80;;;1.60;99.90;;;;;;5019901;28;20037;-64
2022/12/19 02:20:04;;;;;;;43.70;24.60;;;1.60;99.90;;;;;;5020917;28;20107;-64
2022/12/19 02:22:57;;;;;;;44.08;24.60;;;1.60;99.90;;;;;;5027182;28;20557;-63
2022/12/19 02:25:55;;;;;;;41.63;25.67;;;1.60;99.90;;;;;;5020345;28;20042;-64
2022/12/19 02:28:56;;;;;;;39.17;24.52;;;1.60;99.90;;;;;;5023973;28;20053;-64
2022/12/19 02:31:30;;;;;;;44.38;25.77;;;1.60;99.90;;;;;;5022194;28;20033;-64
2022/12/19 02:34:16;;;;;;;45.60;27.83;;;1.60;99.90;;;;;;5023069;28;20029;-65
2022/12/19 02:37:02;;;;;;;48.80;26.73;;;1.50;99.90;;;;;;5025987;28;20069;-65
2022/12/19 02:39:39;;;;;;;43.45;25.65;;;1.60;99.90;;;;;;5024060;28;20099;-64
2022/12/19 02:42:06;;;;;;;44.40;25.27;;;1.60;99.90;;;;;;5028711;28;20121;-64
2022/12/19 02:44:48;;;;;;;48.88;27.55;;;1.60;99.90;;;;;;5023087;28;20076;-64
2022/12/19 02:47:14;;;;;;;49.95;27.88;;;1.50;99.90;;;;;;5023220;28;20045;-64
2022/12/19 02:49:40;;;;;;;52.17;28.38;;;1.60;99.90;;;;;;5020615;28;20116;-64
2022/12/19 02:52:20;;;;;;;52.35;28.20;;;1.50;99.90;;;;;;5031295;28;20049;-64
2022/12/19 02:54:54;;;;;;;54.85;28.67;;;1.60;99.90;;;;;;5026437;28;20042;-65
2022/12/19 02:57:27;;;;;;;51.10;28.58;;;1.60;99.90;;;;;;5026645;28;20041;-65
2022/12/19 03:00:10;;;;;;;55.53;28.40;;;1.50;99.90;;;;;;5026699;28;20049;-65
2022/12/19 03:02:58;;;;;;;56.17;30.20;;;1.60;99.90;;;;;;5025054;28;20053;-65
2022/12/19 03:05:43;;;;;;;56.15;28.38;;;1.60;99.90;;;;;;5024762;28;20559;-64
2022/12/19 03:08:36;;;;;;;57.58;29.20;;;1.60;99.90;;;;;;5022684;28;20045;-64
2022/12/19 03:11:14;;;;;;;55.55;28.95;;;1.70;99.90;;;;;;5025529;28;20033;-64
2022/12/19 03:13:48;;;;;;;55.58;31.25;;;1.70;99.90;;;;;;5039360;28;20045;-64
2022/12/19 03:16:14;;;;;;;55.17;29.42;;;1.70;99.90;;;;;;5019756;28;20068;-65
2022/12/19 03:18:41;;;;;;;62.55;31.05;;;1.80;99.90;;;;;;5024440;28;20497;-65
2022/12/19 03:21:33;;;;;;;58.75;30.88;;;1.80;99.90;;;;;;5017956;28;20104;-65
2022/12/19 03:24:00;;;;;;;65.93;32.75;;;1.80;99.90;;;;;;5020470;28;20050;-65
2022/12/19 03:26:30;;;;;;;58.90;32.22;;;1.80;99.90;;;;;;5020979;28;20041;-65
2022/12/19 03:29:13;;;;;;;61.20;32.13;;;1.90;99.90;;;;;;5018681;28;20048;-65
2022/12/19 03:31:41;;;;;;;54.92;30.83;;;1.90;99.90;;;;;;5016964;28;20040;-65
2022/12/19 03:34:33;;;;;;;56.25;30.40;;;1.90;99.90;;;;;;5021459;28;20045;-65
2022/12/19 03:37:02;;;;;;;63.45;34.53;;;2.00;99.90;;;;;;5019995;28;20380;-64
2022/12/19 03:39:29;;;;;;;65.80;34.38;;;2.10;99.90;;;;;;5018354;28;20042;-65
2022/12/19 03:44:43;;;;;;;63.20;33.70;;;2.10;99.90;;;;;;5018881;28;20065;-65
2022/12/19 03:47:17;;;;;;;68.72;36.28;;;2.20;99.90;;;;;;5019564;28;20158;-64
2022/12/19 03:49:44;;;;;;;;;;;2.20;99.90;;;;;;5016802;28;20033;-64
2022/12/19 03:52:43;;;;;;;61.50;34.28;;;2.20;99.90;;;;;;5023201;28;19949;-65
2022/12/19 03:55:34;;;;;;;68.25;35.17;;;2.20;99.90;;;;;;5016640;28;20045;-65
2022/12/19 03:58:08;;;;;;;63.30;36.22;;;2.20;99.90;;;;;;5021519;28;20493;-65
2022/12/19 04:00:36;;;;;;;66.80;35.95;;;2.20;99.90;;;;;;5017684;28;20148;-65
2022/12/19 04:03:04;;;;;;;61.17;35.70;;;2.30;99.90;;;;;;5018347;28;20029;-65
2022/12/19 04:05:31;;;;;;;71.97;37.83;;;2.30;99.90;;;;;;5017578;28;20136;-65
2022/12/19 04:08:04;;;;;;;66.75;37.70;;;2.40;99.90;;;;;;5015763;28;20052;-65
2022/12/19 04:10:35;;;;;;;61.67;36.97;;;2.40;99.90;;;;;;5016782;28;20059;-65
2022/12/19 04:13:12;;;;;;;71.10;39.05;;;2.40;99.90;;;;;;5021091;28;20070;-65
2022/12/19 04:16:02;;;;;;;66.78;37.08;;;2.40;99.90;;;;;;5017261;28;20052;-65
2022/12/19 04:18:29;;;;;;;66.57;36.83;;;2.40;99.90;;;;;;5016860;28;20157;-65
2022/12/19 04:21:01;;;;;;;73.55;37.22;;;2.40;99.90;;;;;;5021808;28;20125;-65
2022/12/19 04:23:56;;;;;;;75.78;37.80;;;2.50;99.90;;;;;;5019897;28;20053;-65
2022/12/19 04:26:23;;;;;;;67.28;37.70;;;2.50;99.90;;;;;;5018115;28;20100;-65
2022/12/19 04:28:53;;;;;;;64.05;37.33;;;2.50;99.90;;;;;;5033334;28;20037;-65
2022/12/19 04:31:20;;;;;;;63.75;36.03;;;2.50;99.90;;;;;;5017699;28;20049;-65
2022/12/19 04:33:46;;;;;;;64.90;34.08;;;2.50;99.90;;;;;;5022265;28;20046;-65
2022/12/19 04:36:11;;;;;;;57.92;34.88;;;2.50;99.90;;;;;;5018331;28;20478;-64
2022/12/19 04:38:37;;;;;;;65.65;35.20;;;2.60;99.90;;;;;;5013911;28;20159;-65
2022/12/19 04:41:03;;;;;;;65.45;35.13;;;2.60;99.90;;;;;;5019844;28;20504;-64
2022/12/19 04:43:29;;;;;;;56.45;34.03;;;2.60;99.90;;;;;;5016579;28;20049;-64
2022/12/19 04:45:55;;;;;;;63.13;34.67;;;2.60;99.90;;;;;;5019542;28;20109;-64
2022/12/19 04:48:21;;;;;;;65.25;34.22;;;2.70;99.90;;;;;;5016906;28;20041;-64
2022/12/19 04:50:46;;;;;;;59.65;33.53;;;2.70;99.90;;;;;;5022556;28;20110;-65
2022/12/19 04:53:12;;;;;;;62.97;33.55;;;2.80;99.90;;;;;;5017758;28;20049;-64
2022/12/19 04:55:39;;;;;;;57.20;31.08;;;2.80;99.90;;;;;;5016394;28;20056;-64
2022/12/19 04:58:06;;;;;;;54.55;31.70;;;2.80;99.90;;;;;;5019717;28;20037;-64
2022/12/19 05:00:32;;;;;;;57.65;31.80;;;2.90;99.90;;;;;;5020438;28;20040;-65
2022/12/19 05:02:58;;;;;;;68.72;34.15;;;2.90;99.90;;;;;;5006468;28;20049;-65
2022/12/19 05:05:24;;;;;;;59.55;32.92;;;2.90;99.90;;;;;;5024109;28;20034;-65
2022/12/19 05:07:50;;;;;;;70.22;34.22;;;2.90;99.90;;;;;;5018767;28;20630;-66
2022/12/19 05:10:16;;;;;;;66.55;34.65;;;3.00;99.90;;;;;;5021673;28;20510;-65
2022/12/19 05:12:42;;;;;;;59.53;31.75;;;3.00;99.90;;;;;;5016706;28;20064;-65
2022/12/19 05:15:09;;;;;;;51.65;31.55;;;3.00;99.90;;;;;;5015286;28;20041;-65
2022/12/19 05:17:34;;;;;;;64.68;33.67;;;3.00;99.90;;;;;;5017426;28;20038;-65
2022/12/19 05:20:00;;;;;;;65.35;31.55;;;3.00;99.90;;;;;;5021450;28;20038;-65
2022/12/19 05:22:26;;;;;;;62.33;31.90;;;3.10;99.90;;;;;;5017564;28;20547;-65
2022/12/19 05:24:52;;;;;;;61.10;32.88;;;3.10;99.90;;;;;;5015357;28;20033;-65
2022/12/19 05:27:18;;;;;;;58.75;32.47;;;3.20;99.90;;;;;;5022024;28;20050;-65
2022/12/19 05:29:43;;;;;;;55.78;31.08;;;3.20;99.90;;;;;;5013884;28;20497;-65
2022/12/19 05:32:09;;;;;;;62.15;30.70;;;3.20;99.90;;;;;;5020026;28;20577;-66
2022/12/19 05:34:35;;;;;;;60.35;29.92;;;3.30;99.90;;;;;;5015090;28;20038;-64
2022/12/19 05:37:02;;;;;;;59.80;31.17;;;3.30;99.90;;;;;;5021051;28;20516;-65
2022/12/19 05:39:28;;;;;;;56.80;30.38;;;3.30;99.90;;;;;;5020041;28;20047;-64
2022/12/19 05:41:54;;;;;;;59.97;29.75;;;3.30;99.90;;;;;;5021220;28;20113;-65
2022/12/19 05:44:20;;;;;;;63.78;30.02;;;3.40;99.90;;;;;;5020449;28;20194;-64
2022/12/19 05:46:45;;;;;;;55.42;29.38;;;3.40;99.90;;;;;;5019908;28;20479;-64
2022/12/19 05:49:11;;;;;;;57.42;28.63;;;3.40;99.90;;;;;;5017778;28;20038;-65
2022/12/19 05:51:37;;;;;;;54.35;29.02;;;3.40;99.90;;;;;;4999956;28;20478;-66
2022/12/19 05:54:03;;;;;;;52.40;27.45;;;3.40;99.90;;;;;;5021581;28;20131;-64
2022/12/19 05:56:28;;;;;;;60.25;29.70;;;3.50;99.90;;;;;;5017733;28;20271;-66
2022/12/19 05:58:55;;;;;;;51.65;27.40;;;3.60;99.90;;;;;;5016602;28;20041;-65
2022/12/19 06:01:26;;;;;;;52.58;28.17;;;3.60;99.90;;;;;;5013870;28;20049;-65
2022/12/19 06:03:53;;;;;;;44.00;24.70;;;3.60;99.90;;;;;;5014426;28;20042;-65
2022/12/19 06:06:21;;;;;;;46.08;25.50;;;3.70;99.90;;;;;;5017523;28;20060;-66
2022/12/19 06:08:51;;;;;;;44.47;24.63;;;3.70;99.90;;;;;;5014814;28;20036;-65
2022/12/19 06:11:16;;;;;;;46.70;24.23;;;3.70;99.90;;;;;;5020663;28;20489;-67
2022/12/19 06:13:45;;;;;;;41.78;23.83;;;3.70;99.90;;;;;;5017913;28;20042;-65
2022/12/19 06:16:13;;;;;;;43.20;24.45;;;3.70;99.90;;;;;;5017172;28;20529;-65
2022/12/19 06:18:40;;;;;;;37.25;23.02;;;3.70;99.90;;;;;;5019453;28;20072;-65
2022/12/19 06:21:13;;;;;;;41.35;23.08;;;3.80;99.90;;;;;;5014888;28;20053;-66
2022/12/19 06:23:39;;;;;;;46.33;23.73;;;3.80;99.90;;;;;;5019940;28;20037;-65
2022/12/19 06:26:06;;;;;;;39.42;22.27;;;3.90;99.90;;;;;;5015962;28;20060;-65
2022/12/19 06:28:33;;;;;;;41.38;21.80;;;3.90;99.90;;;;;;5020009;28;20125;-66
2022/12/19 06:31:00;;;;;;;39.40;21.83;;;3.90;99.90;;;;;;5009866;28;20136;-66
2022/12/19 06:33:27;;;;;;;44.03;24.25;;;4.00;99.90;;;;;;5016122;28;20498;-66
2022/12/19 06:36:09;;;;;;;39.92;22.27;;;4.00;99.90;;;;;;5017784;28;20037;-66
2022/12/19 06:38:35;;;;;;;36.58;20.83;;;4.00;99.90;;;;;;5025977;28;20042;-65
2022/12/19 06:43:46;;;;;;;43.10;21.70;;;4.10;99.90;;;;;;5023769;28;20057;-66
2022/12/19 06:46:12;;;;;;;37.97;21.20;;;4.00;99.90;;;;;;5015217;28;20049;-66
2022/12/19 06:48:38;;;;;;;55.53;23.08;;;4.10;99.90;;;;;;5022632;28;20412;-65
2022/12/19 06:51:04;;;;;;;40.75;21.45;;;4.00;99.90;;;;;;5024665;28;20111;-67
2022/12/19 06:53:29;;;;;;;34.13;20.35;;;4.00;99.90;;;;;;5020999;28;20055;-65
2022/12/19 06:55:57;;;;;;;34.20;18.92;;;4.10;99.90;;;;;;5021376;28;20067;-66
2022/12/19 06:58:24;;;;;;;35.35;19.05;;;4.10;99.90;;;;;;5024959;28;20211;-65
2022/12/19 07:00:50;;;;;;;35.95;20.65;;;4.10;99.90;;;;;;5018860;28;20038;-66
2022/12/19 07:03:20;;;;;;;34.22;20.10;;;4.10;99.90;;;;;;5017944;28;20088;-66
2022/12/19 07:05:47;;;;;;;38.35;21.83;;;4.10;99.90;;;;;;5023063;28;20046;-65
2022/12/19 07:08:12;;;;;;;36.65;20.67;;;4.20;99.90;;;;;;5025065;28;20104;-65
2022/12/19 07:10:38;;;;;;;31.02;19.85;;;4.20;99.90;;;;;;5016734;28;20576;-66
2022/12/19 07:13:04;;;;;;;38.25;21.15;;;4.20;99.90;;;;;;5019377;28;20045;-66
2022/12/19 07:15:31;;;;;;;37.05;20.33;;;4.30;99.90;;;;;;5020716;28;20046;-66
2022/12/19 07:17:58;;;;;;;30.70;18.48;;;4.30;99.90;;;;;;5021377;28;20021;-66
2022/12/19 07:20:24;;;;;;;37.15;20.73;;;4.20;99.90;;;;;;5023250;28;20544;-66
2022/12/19 07:22:50;;;;;;;39.63;20.45;;;4.30;99.90;;;;;;5023355;28;20097;-66
2022/12/19 07:25:16;;;;;;;27.75;18.77;;;4.30;99.90;;;;;;5023733;28;20046;-66
2022/12/19 07:27:43;;;;;;;38.55;19.63;;;4.40;99.90;;;;;;5023294;28;20536;-66
2022/12/19 07:30:09;;;;;;;31.85;19.00;;;4.40;99.90;;;;;;5021960;28;20145;-66
2022/12/19 07:32:35;;;;;;;39.53;21.33;;;4.40;99.90;;;;;;5021408;28;20038;-65
2022/12/19 07:35:01;;;;;;;32.47;19.23;;;4.40;99.90;;;;;;5024172;28;20444;-66
2022/12/19 07:37:27;;;;;;;38.55;21.33;;;4.40;99.90;;;;;;5019069;28;20049;-65
2022/12/19 07:39:53;;;;;;;30.88;18.50;;;4.40;99.90;;;;;;5021892;28;20107;-66
2022/12/19 07:42:19;;;;;;;39.70;20.33;;;4.50;99.90;;;;;;5019274;28;20042;-65
2022/12/19 07:44:44;;;;;;;33.53;18.88;;;4.50;99.90;;;;;;5019829;28;20040;-66
2022/12/19 07:47:10;;;;;;;32.35;18.30;;;4.60;99.90;;;;;;5017387;28;20433;-66
2022/12/19 07:49:36;;;;;;;42.00;19.42;;;4.50;99.90;;;;;;5022919;28;20122;-65
2022/12/19 07:52:02;;;;;;;31.13;17.85;;;4.50;99.90;;;;;;5020537;28;20145;-66
2022/12/19 07:54:27;;;;;;;37.08;18.10;;;4.50;99.90;;;;;;5025404;28;20046;-65
2022/12/19 07:56:53;;;;;;;32.55;18.13;;;4.60;99.90;;;;;;5021689;28;20057;-65
2022/12/19 07:59:19;;;;;;;35.40;19.17;;;4.60;99.90;;;;;;5018545;28;20282;-65
2022/12/19 08:01:44;;;;;;;33.90;18.65;;;4.60;99.90;;;;;;5019768;28;20042;-66
2022/12/19 08:04:10;;;;;;;30.17;18.38;;;4.70;99.90;;;;;;5020172;28;20057;-66
2022/12/19 08:06:36;;;;;;;36.58;18.90;;;4.70;99.90;;;;;;5018968;28;20146;-66
2022/12/19 08:09:02;;;;;;;30.95;18.13;;;4.80;99.90;;;;;;5020290;28;20500;-66
2022/12/19 08:11:28;;;;;;;32.47;17.63;;;4.70;99.90;;;;;;5018543;28;20072;-66
2022/12/19 08:13:55;;;;;;;25.80;16.13;;;4.80;99.90;;;;;;5018692;28;20551;-66
2022/12/19 08:16:23;;;;;;;33.50;18.80;;;4.90;99.90;;;;;;5015350;28;20379;-65
2022/12/19 08:18:48;;;;;;;34.13;18.58;;;4.90;99.90;;;;;;5017216;28;20080;-66
2022/12/19 08:21:14;;;;;;;31.77;18.88;;;4.90;99.90;;;;;;5022791;28;20038;-66
2022/12/19 08:23:40;;;;;;;31.35;17.60;;;5.00;99.90;;;;;;5017954;28;20400;-66
2022/12/19 08:26:15;;;;;;;32.28;17.75;;;5.00;99.90;;;;;;5016175;28;20045;-66
2022/12/19 08:28:42;;;;;;;32.40;17.17;;;5.00;99.90;;;;;;5016788;28;20127;-66
2022/12/19 08:31:10;;;;;;;28.80;17.75;;;5.00;99.90;;;;;;5019559;28;20033;-66
2022/12/19 08:33:36;;;;;;;37.35;18.67;;;5.10;99.90;;;;;;5021946;28;20041;-66
2022/12/19 08:36:14;;;;;;;26.95;17.25;;;5.10;99.90;;;;;;5023698;28;20040;-66
2022/12/19 08:38:40;;;;;;;30.30;16.83;;;5.10;99.90;;;;;;5022613;28;20046;-66
2022/12/19 08:41:06;;;;;;;30.92;17.95;;;5.10;99.90;;;;;;5014408;28;20434;-66
2022/12/19 08:43:32;;;;;;;29.95;17.83;;;5.20;99.90;;;;;;5017808;28;20041;-65
2022/12/19 08:45:58;;;;;;;26.20;17.05;;;5.20;99.90;;;;;;5014480;28;20057;-66
2022/12/19 08:48:24;;;;;;;34.75;18.55;;;5.30;99.90;;;;;;5022305;28;20087;-66
2022/12/19 08:50:57;;;;;;;32.88;17.60;;;5.30;99.90;;;;;;5018499;28;20033;-67
2022/12/19 08:53:25;;;;;;;31.23;16.75;;;5.40;99.90;;;;;;5019682;28;20103;-66
2022/12/19 08:55:59;;;;;;;32.60;17.58;;;5.40;99.90;;;;;;5019682;28;20037;-66
2022/12/19 08:58:26;;;;;;;38.42;18.70;;;5.40;99.90;;;;;;5022550;28;20493;-65
2022/12/19 09:00:52;;;;;;;28.45;16.67;;;5.50;99.90;;;;;;5015383;28;20061;-66
2022/12/19 09:03:19;;;;;;;36.58;19.13;;;5.50;99.90;;;;;;5022452;28;20049;-66
2022/12/19 09:05:45;;;;;;;29.38;17.25;;;5.60;99.90;;;;;;5017620;28;20041;-66
2022/12/19 09:08:11;;;;;;;36.60;18.92;;;5.60;99.90;;;;;;5018529;28;20056;-66
2022/12/19 09:10:37;;;;;;;34.55;18.98;;;5.60;99.90;;;;;;5015884;28;20045;-65
2022/12/19 09:13:06;;;;;;;32.97;18.60;;;5.70;99.90;;;;;;5024379;28;20370;-66
2022/12/19 09:15:31;;;;;;;31.83;19.63;;;5.70;99.90;;;;;;5020361;28;20460;-65
2022/12/19 09:17:57;;;;;;;27.52;18.65;;;5.80;99.90;;;;;;5019449;28;20043;-65
2022/12/19 09:20:23;;;;;;;33.88;19.50;;;5.90;99.90;;;;;;5020953;28;20440;-65
2022/12/19 09:22:48;;;;;;;32.28;19.48;;;5.90;99.90;;;;;;5018195;28;20100;-66
2022/12/19 09:25:14;;;;;;;36.55;21.38;;;5.90;99.90;;;;;;5020161;28;20037;-65
2022/12/19 09:27:40;;;;;;;30.83;19.20;;;6.00;99.90;;;;;;5020283;28;20053;-65
2022/12/19 09:30:07;;;;;;;31.73;20.83;;;6.00;99.90;;;;;;5024004;28;20059;-65
2022/12/19 09:32:32;;;;;;;33.45;20.20;;;6.00;99.90;;;;;;5019830;28;20045;-65
2022/12/19 09:34:58;;;;;;;34.17;20.98;;;6.10;99.90;;;;;;5023683;28;20068;-66
2022/12/19 09:37:23;;;;;;;34.03;20.63;;;6.10;99.90;;;;;;5002461;28;20092;-65
2022/12/19 09:39:49;;;;;;;37.40;20.17;;;6.30;99.90;;;;;;5018015;28;20116;-66
2022/12/19 09:42:51;;;;;;;35.17;21.40;;;6.30;99.90;;;;;;5017476;28;20038;-66
2022/12/19 09:46:03;;;;;;;33.50;20.48;;;6.40;99.90;;;;;;5023257;28;20041;-65
2022/12/19 09:48:29;;;;;;;30.70;19.27;;;6.40;99.90;;;;;;5038750;28;20144;-66
2022/12/19 09:51:16;;;;;;;34.78;20.80;;;6.30;99.90;;;;;;5026666;28;20117;-65
2022/12/19 09:53:54;;;;;;;37.80;22.00;;;6.50;99.90;;;;;;5014262;28;20045;-65
2022/12/19 09:56:24;;;;;;;35.22;21.20;;;6.50;99.90;;;;;;5019245;28;20452;-66
2022/12/19 09:58:57;;;;;;;34.55;20.88;;;6.50;99.90;;;;;;5015352;28;20393;-66
2022/12/19 10:01:36;;;;;;;31.42;19.20;;;6.60;99.90;;;;;;5013254;28;20184;-66
2022/12/19 10:04:10;;;;;;;28.83;18.17;;;6.60;99.90;;;;;;5019016;28;20045;-66
2022/12/19 10:06:37;;;;;;;28.92;18.88;;;6.60;99.90;;;;;;5022875;28;20062;-66
2022/12/19 10:09:05;;;;;;;29.50;19.10;;;6.70;99.90;;;;;;5018614;28;20485;-65
2022/12/19 10:11:44;;;;;;;33.17;19.23;;;6.70;99.90;;;;;;5022702;28;20041;-67
2022/12/19 10:14:59;;;;;;;26.40;17.33;;;6.70;99.90;;;;;;5017692;28;20065;-65
2022/12/19 10:18:01;;;;;;;29.60;18.50;;;6.80;99.90;;;;;;5011889;28;20460;-66
2022/12/19 10:20:44;;;;;;;26.95;16.98;;;6.80;99.90;;;;;;5019209;28;20034;-66
2022/12/19 10:23:19;;;;;;;25.65;17.05;;;6.80;99.90;;;;;;5023105;28;20045;-66
2022/12/19 10:25:58;;;;;;;23.30;16.05;;;6.80;99.90;;;;;;5024729;28;20045;-68
2022/12/19 10:28:42;;;;;;;25.75;17.02;;;6.90;99.90;;;;;;5017091;28;20040;-65
2022/12/19 10:31:18;;;;;;;25.52;16.08;;;7.00;99.90;;;;;;5020834;28;20088;-65
2022/12/19 10:34:09;;;;;;;28.55;17.52;;;6.90;99.90;;;;;;5021504;28;20084;-66
2022/12/19 10:36:48;;;;;;;26.27;15.45;;;7.00;99.90;;;;;;5022633;28;20029;-66
2022/12/19 10:40:00;;;;;;;23.90;16.25;;;7.00;99.90;;;;;;5023883;28;20378;-66
2022/12/19 10:42:36;;;;;;;22.35;15.40;;;7.00;99.90;;;;;;5008942;28;20493;-66
2022/12/19 10:45:11;;;;;;;24.50;15.82;;;7.10;99.90;;;;;;5019373;28;20052;-66
2022/12/19 10:47:39;;;;;;;20.70;13.82;;;7.10;99.90;;;;;;5022953;28;20069;-66
2022/12/19 10:50:04;;;;;;;23.55;15.13;;;7.20;99.90;;;;;;5021364;28;20128;-66
2022/12/19 10:52:51;;;;;;;24.10;15.60;;;7.20;99.90;;;;;;5024179;28;20033;-66
2022/12/19 10:55:49;;;;;;;20.42;15.32;;;7.20;99.90;;;;;;5018449;28;20489;-66
2022/12/19 10:58:26;;;;;;;22.20;14.75;;;7.30;99.90;;;;;;5022582;28;20045;-67
2022/12/19 11:01:14;;;;;;;21.52;13.98;;;7.20;99.90;;;;;;5021966;28;20117;-66
2022/12/19 11:03:51;;;;;;;19.95;14.40;;;7.30;99.90;;;;;;5018896;28;20502;-66
2022/12/19 11:06:50;;;;;;;19.20;13.65;;;7.30;99.90;;;;;;5018082;28;20131;-66
2022/12/19 11:09:19;;;;;;;18.75;13.73;;;7.30;99.90;;;;;;4990901;28;20060;-66
2022/12/19 11:11:58;;;;;;;18.60;13.43;;;7.40;99.90;;;;;;5016989;28;20129;-66
2022/12/19 11:14:27;;;;;;;17.38;12.68;;;7.40;99.90;;;;;;5019191;28;20065;-66
2022/12/19 11:16:53;;;;;;;17.73;12.57;;;7.40;99.90;;;;;;5024175;28;20124;-66
2022/12/19 11:19:38;;;;;;;15.68;12.05;;;7.40;99.90;;;;;;5020831;28;20120;-66
2022/12/19 11:22:19;;;;;;;15.95;11.80;;;7.50;99.90;;;;;;5030082;28;20462;-66
2022/12/19 11:24:50;;;;;;;18.52;13.18;;;7.50;99.90;;;;;;5018617;28;20133;-66
2022/12/19 11:27:36;;;;;;;18.48;12.65;;;7.40;99.90;;;;;;5021632;28;20081;-65
2022/12/19 11:30:16;;;;;;;14.52;11.45;;;7.50;99.90;;;;;;5016729;28;20116;-65
2022/12/19 11:32:46;;;;;;;16.33;12.02;;;7.50;99.90;;;;;;5022467;28;20053;-65
2022/12/19 11:35:25;;;;;;;15.95;12.20;;;7.50;99.90;;;;;;5023537;28;20494;-65
2022/12/19 11:38:03;;;;;;;18.25;12.13;;;7.50;99.90;;;;;;5027251;28;20064;-65
2022/12/19 11:40:55;;;;;;;15.30;11.63;;;7.60;99.90;;;;;;5021782;28;20038;-65
2022/12/19 11:43:30;;;;;;;17.02;11.43;;;7.60;99.90;;;;;;5019491;28;20045;-65
2022/12/19 11:46:07;;;;;;;19.45;12.88;;;7.50;99.90;;;;;;5020386;28;20076;-66
2022/12/19 11:48:51;;;;;;;17.80;12.85;;;7.60;99.90;;;;;;5021452;28;20064;-66
2022/12/19 11:51:35;;;;;;;17.33;12.23;;;7.60;99.90;;;;;;5018472;28;20042;-65
2022/12/19 11:54:05;;;;;;;16.35;11.38;;;7.70;99.90;;;;;;5019731;28;20398;-65
2022/12/19 11:56:31;;;;;;;16.35;12.25;;;7.60;99.90;;;;;;5017476;28;20124;-65
2022/12/19 11:59:09;;;;;;;17.23;11.50;;;7.70;99.90;;;;;;5027732;28;20489;-65
2022/12/19 12:01:40;;;;;;;15.73;11.23;;;7.70;99.90;;;;;;5016980;28;20046;-65
2022/12/19 12:04:51;;;;;;;19.27;12.27;;;7.70;99.90;;;;;;5032677;28;20136;-65
2022/12/19 12:07:17;;;;;;;14.75;10.85;;;7.70;99.90;;;;;;5007671;28;20060;-65
2022/12/19 12:10:09;;;;;;;17.42;11.80;;;7.70;99.90;;;;;;5021475;28;20551;-66
2022/12/19 12:12:44;;;;;;;18.77;12.25;;;7.80;99.90;;;;;;5021239;28;20063;-65
2022/12/19 12:15:36;;;;;;;13.98;10.95;;;7.70;99.90;;;;;;5024549;28;20033;-66
2022/12/19 12:18:29;;;;;;;14.63;10.68;;;7.70;99.90;;;;;;5017898;28;20451;-65
2022/12/19 12:21:08;;;;;;;16.92;11.65;;;7.80;99.90;;;;;;5023413;28;20570;-65
2022/12/19 12:24:00;;;;;;;13.63;10.57;;;7.70;99.90;;;;;;5016354;28;20034;-64
2022/12/19 12:26:45;;;;;;;15.80;11.45;;;7.80;99.90;;;;;;5018197;28;20163;-66
2022/12/19 12:29:16;;;;;;;;;;;7.90;99.90;;;;;;5022085;28;20562;-65
2022/12/19 12:31:48;;;;;;;13.90;11.10;;;7.80;99.90;;;;;;5023119;28;20392;-65
2022/12/19 12:34:19;;;;;;;13.82;11.38;;;7.90;99.90;;;;;;5021000;28;20049;-66
2022/12/19 12:36:54;;;;;;;15.95;11.40;;;7.80;99.90;;;;;;5018017;28;20128;-66
2022/12/19 12:39:43;;;;;;;14.20;11.40;;;7.90;99.90;;;;;;5022192;28;20025;-65
2022/12/19 12:42:23;;;;;;;13.18;10.07;;;8.00;99.90;;;;;;5020641;28;20052;-64
2022/12/19 12:44:54;;;;;;;13.25;11.48;;;8.00;99.90;;;;;;5018591;28;20045;-63
2022/12/19 12:47:29;;;;;;;12.75;10.55;;;7.90;99.90;;;;;;5015936;28;20026;-66
2022/12/19 12:49:59;;;;;;;12.40;10.27;;;8.00;99.90;;;;;;5016273;28;20449;-64
2022/12/19 12:52:42;;;;;;;11.40;10.18;;;7.90;99.90;;;;;;5015782;28;20511;-66
2022/12/19 12:55:28;;;;;;;14.68;10.77;;;8.00;99.90;;;;;;5018216;28;20049;-65
2022/12/19 12:57:54;;;;;;;14.00;11.43;;;7.90;99.90;;;;;;5014555;28;20046;-65
2022/12/19 13:00:32;;;;;;;13.55;10.95;;;7.90;99.90;;;;;;5022249;28;20038;-65
2022/12/19 13:03:05;;;;;;;13.55;10.70;;;7.90;99.90;;;;;;5020116;28;20049;-64
2022/12/19 13:05:34;;;;;;;14.07;10.98;;;8.00;99.90;;;;;;5019783;28;20092;-66
2022/12/19 13:08:01;;;;;;;18.25;11.55;;;8.00;99.90;;;;;;5017142;28;20054;-65